默认 日期 大小 文件数 浏览量 最新下载 xml
17.c磁力链接相关资源由用户搜索指令自动获取,结果来源于网络,本站不存储任何资料,亦不承担任何责任,请于24小时内删除,搜索到751个磁力,用时18ms。
    {"sop168": {"speedplus.txt": 0, "[email protected]": 39, "[email protected]": 56, "SOP168@99p2p+touch99.txt": 44, "SOP168@�T�ǯT�׾�.txt": 48, "SOP168@���~�Ѽֳ�.txt": 49, "sop168@P2P�㾴���ǰ|.txt": 46, "SOP168@�����Q�װ�.txt": 49, "sop168@�d���դ���.txt": 36}, ...
创建时间: 2020-07-15 20:10:41 大小:10.34 GB 文件数量:40 热度:3 最近下载:2025-02-11 05:02:40
    {"Provided by torrentgalaxy.to .nfo": 690, "HornyDreamBabeZ.14.03.17.Alena.C.Two.Nasty.Girls.Take.Care.Of.A.Cock.XXX.720p.WEB.x264-GalaXXXy.mkv": 569847315}
创建时间: 2020-07-18 22:59:48 大小:543.45 MB 文件数量:2 热度:6 最近下载:2025-08-01 14:21:08
    ... .jpg": 371927, "16.jpg": 225892, "17.jpg": 211990, "18.jpg": 244934 ...
创建时间: 2020-07-20 22:45:23 大小:8.36 MB 文件数量:26 热度:5 最近下载:2024-12-22 07:12:03
    ... -DVD.Rip.x264.a720.AC3-C@SiLU.mkv": 2308499118, "Sea.of ... -DVD.Rip.x264.a720.AC3-C@SiLU.nfo": 3544, "Sea. ... -DVD.Rip.x264.a720.AC3-C@SiLU.mkv.par2": 40500, "Sea ... -DVD.Rip.x264.a720.AC3-C@SiLU-Sample.mkv": 31742179, "Sea ... DVD.Rip.x264.a720.AC3-C@SiLU.mkv.vol0+1.PAR2 ...
创建时间: 2020-07-23 01:48:38 大小:2.19 GB 文件数量:7 热度:5 最近下载:2025-03-10 03:34:02
    {"poster.jpg": 52931, "screens.jpg": 583073, "vivthomas.17.06.14.adel.c.and.kalisy.charming.mp4": 1337532602}
创建时间: 2020-08-02 14:58:09 大小:1.25 GB 文件数量:3 热度:12 最近下载:2025-06-12 19:12:01
    ... ": 86, "hdb.14.03.17.alena.c.two.nasty.girls.take.care ... ": 1382899388, "hdb.14.03.17.alena.c.two.nasty.girls.take.care ...
创建时间: 2020-09-06 03:45:16 大小:1.3 GB 文件数量:13 热度:7 最近下载:2025-08-01 23:57:06
    {"VIDEO_TS.BUP": 12288, "VIDEO_TS.IFO": 12288, "VIDEO_TS.VOB": 28276736, "VTS_01_0.BUP": 61440, "VTS_01_0.IFO": 61440, "VTS_01_0.VOB": 188416, "VTS_01_1.VOB": 1073504256, "VTS_01_2.VOB": 1073371136, "VTS_01_3.VOB": 1073588224, "VTS_01_4.VOB": 556519424}
创建时间: 2020-09-18 14:14:03 大小:3.54 GB 文件数量:10 热度:12 最近下载:2025-09-20 13:16:03
    ... .URL": 254, "Mając 17 lat - Quand on a 17 ans 2016 [480p ...
创建时间: 2020-09-19 00:32:41 大小:1.04 GB 文件数量:5 热度:4 最近下载:2025-02-13 13:57:03
    ... .Ahlanedu.com.url": 51, "Beginning C++17 From Novice to Professional, 5th ... (2018) [AhLaN].pdf": 10113745, "Beginning C++17 From Novice to Professional, 5th ...
创建时间: 2020-09-19 05:43:42 大小:12.56 MB 文件数量:6 热度:8 最近下载:2025-02-28 14:55:03
    {"Ncis Stagione 17 Ep. 12 Piano di Volo Dlmux 720p h264 Ita Ac3 Eng Ac3 5.1 Sub Ita Eng Mircrew.mkv": 764452078, "Ncis Stagione 17 Ep. 13 Sotto Silenzio Dlmux 720p h264 Ita Ac3 Eng Ac3 5.1 Sub Ita Eng Mircrew.mkv": 750022060}
创建时间: 2020-09-22 23:29:45 大小:1.41 GB 文件数量:2 热度:7 最近下载:2025-04-21 03:13:02
    {"cover.jpg": 81562, "model_info.txt": 523, "MET-ART_DMM_19_0000.jpg": 558310, "MET-ART_DMM_19_0001.jpg": 486879, "MET-ART_DMM_19_0002.jpg": 488543, "MET-ART_DMM_19_0003.jpg": 515705, "MET-ART_DMM_19_0004.jpg": 320735, "MET-ART_DMM_19_0005.jpg": 383302, " ...
创建时间: 2020-10-03 07:22:34 大小:58.73 MB 文件数量:157 热度:7 最近下载:2025-07-24 00:07:03
    ... 街頭][玉皇朝][C.C].Vol.01.zip": 262801197, ... 街頭][玉皇朝][C.C].Vol.02.zip": 258555938, ... 街頭][玉皇朝][C.C].Vol.03.zip": 282739105, ... 街頭][玉皇朝][C.C].Vol.04.zip": 276546869, ... 街頭][玉皇朝][C.C].Vol.05.zip": 285456657, ... 街頭][玉皇朝][C.C].Vol.06.zip": 286516401, ... 玉皇朝][C.C].Vol.17.zip": 272823392}
创建时间: 2020-10-08 19:17:37 大小:4.38 GB 文件数量:17 热度:71 最近下载:2025-09-24 02:41:01
    {"Ncis Stagione 17 Ep. 15 Cuori Solitari Dlmux 720p h264 Ita Ac3 Eng Ac3 5.1 Sub Ita Eng Mircrew.mkv": 776182868, "Ncis Stagione 17 Ep. 14 Fuori Controllo Dlmux 720p h264 Ita Ac3 Eng Ac3 5.1 Sub Ita Eng Mircrew.mkv": 762929100}
创建时间: 2020-10-12 01:12:56 大小:1.43 GB 文件数量:2 热度:6 最近下载:2025-02-12 22:59:01
    {"Ncis Stagione 17 Ep. 16 Viaggio nel Tempo Dlmux 720p h264 Ita Ac3 Eng Ac3 5.1 Sub Ita Eng Mircrew.mkv": 772441521, "Ncis Stagione 17 Ep. 17 Omicidi in Miniatura Dlmux 720p h264 Ita Ac3 Eng Ac3 5.1 Sub Ita Eng Mircrew.mkv": 729198388}
创建时间: 2020-10-25 10:16:55 大小:1.4 GB 文件数量:2 热度:10 最近下载:2025-02-15 17:36:04
    {"Ncis Stagione 17 Ep. 18 Castore e Polluce Dlmux 720p h264 Ita Ac3 Eng Ac3 5.1 Sub Ita Eng Mircrew.mkv": 754854178, "Ncis Stagione 17 Ep. 19 Il Giorno di San Patrizio Dlmux 720p h264 Ita Ac3 Eng Ac3 5.1 Sub Ita Eng Mircrew.mkv": 748499653}
创建时间: 2020-11-11 16:01:26 大小:1.4 GB 文件数量:2 热度:7 最近下载:2024-12-28 11:40:02
    ... D.D.Teoli Jr. A.C. (17).jpg": 2229056, "Frederick's of ... D.D.Teoli Jr. A.C. (9)_thumb.jpg": 5061, " ... -d.-d.-teoli-jr.-a.-c.-17_meta.xml": 3097, "Frederick's ... D.D.Teoli Jr. A.C. (17)_thumb.jpg": 6820, "Frederick's ... D.D.Teoli Jr. A.C. (58)_thumb.jpg": 3620, " ...
创建时间: 2020-11-20 11:52:50 大小:109.5 MB 文件数量:119 热度:11 最近下载:2025-09-18 23:45:03
    ... mkv": 802268583, "Ncis Stagione 17 Ep. 07 Tutto Esaurito Dlmux ... mkv": 767944213, "Ncis Stagione 17 Ep. 08 Musica, Maestro Dlmux ... mkv": 773990928, "Ncis Stagione 17 Ep. 14 Fuori Controllo Dlmux ... 754854178, "Ncis Stagione 17 Ep. 17 Omicidi in Miniatura Dlmux 720p ...
创建时间: 2020-11-21 23:31:22 大小:14.24 GB 文件数量:20 热度:10 最近下载:2025-08-02 04:26:07
    {"Donate.url": 127, "Download 720p & 1080p HEVC porn [PornRips.to].url": 110, "HornyDreamBabeZ.14.03.17.Alena.C.Two.Nasty.Girls.Take.Care.Of.A.Cock.XXX.720p.HEVC.x265.PRT.mp4": 471452225}
创建时间: 2020-11-22 20:55:06 大小:449.61 MB 文件数量:3 热度:6 最近下载:2025-08-01 02:40:08
    ... .nfo": 86, "SinnSage.20.09.17.Sinn.Sage.And.Georgia.Jones ... .avi": 190491728, "SinnSage.20.09.17.Sinn.Sage.And.Georgia.Jones ...
创建时间: 2020-12-05 23:28:08 大小:183.75 MB 文件数量:12 热度:6 最近下载:2025-01-12 06:30:05
    {"1.ts": 2104604916, "2.ts": 2162095316}
创建时间: 2020-12-19 23:44:10 大小:3.97 GB 文件数量:2 热度:7 最近下载:2025-10-16 09:55:04